sensor_id;sensor_type;location;lat;lon;timestamp;temperature;humidity
31113;DHT22;17763;48.730;9.136;2023-06-14T00:02:24;17.80;50.80
31113;DHT22;17763;48.730;9.136;2023-06-14T00:04:49;17.70;50.90
31113;DHT22;17763;48.730;9.136;2023-06-14T00:07:16;17.70;51.10
31113;DHT22;17763;48.730;9.136;2023-06-14T00:09:42;17.60;51.10
31113;DHT22;17763;48.730;9.136;2023-06-14T00:12:11;17.60;51.60
31113;DHT22;17763;48.730;9.136;2023-06-14T00:14:36;17.60;52.30
31113;DHT22;17763;48.730;9.136;2023-06-14T00:17:05;17.50;52.80
31113;DHT22;17763;48.730;9.136;2023-06-14T00:19:32;17.50;53.40
31113;DHT22;17763;48.730;9.136;2023-06-14T00:22:02;17.50;53.40
31113;DHT22;17763;48.730;9.136;2023-06-14T00:24:28;17.50;53.70
31113;DHT22;17763;48.730;9.136;2023-06-14T00:26:54;17.40;54.20
31113;DHT22;17763;48.730;9.136;2023-06-14T00:29:23;17.40;54.50
31113;DHT22;17763;48.730;9.136;2023-06-14T00:31:48;17.30;54.70
31113;DHT22;17763;48.730;9.136;2023-06-14T00:34:14;17.30;54.70
31113;DHT22;17763;48.730;9.136;2023-06-14T00:36:44;17.30;55.20
31113;DHT22;17763;48.730;9.136;2023-06-14T00:39:12;17.30;54.50
31113;DHT22;17763;48.730;9.136;2023-06-14T00:41:41;17.20;54.70
31113;DHT22;17763;48.730;9.136;2023-06-14T00:44:08;17.20;54.40
31113;DHT22;17763;48.730;9.136;2023-06-14T00:46:34;17.20;54.60
31113;DHT22;17763;48.730;9.136;2023-06-14T00:49:05;17.10;54.70
31113;DHT22;17763;48.730;9.136;2023-06-14T00:51:31;17.10;54.40
31113;DHT22;17763;48.730;9.136;2023-06-14T00:53:57;17.10;54.00
31113;DHT22;17763;48.730;9.136;2023-06-14T00:56:23;17.10;54.30
31113;DHT22;17763;48.730;9.136;2023-06-14T00:58:49;17.10;54.60
31113;DHT22;17763;48.730;9.136;2023-06-14T01:01:16;17.00;54.50
31113;DHT22;17763;48.730;9.136;2023-06-14T01:03:42;17.00;53.60
31113;DHT22;17763;48.730;9.136;2023-06-14T01:14:03;16.80;54.10
31113;DHT22;17763;48.730;9.136;2023-06-14T01:16:29;16.80;54.00
31113;DHT22;17763;48.730;9.136;2023-06-14T01:18:56;16.80;53.90
31113;DHT22;17763;48.730;9.136;2023-06-14T01:21:24;16.80;54.20
31113;DHT22;17763;48.730;9.136;2023-06-14T01:23:51;16.80;54.70
31113;DHT22;17763;48.730;9.136;2023-06-14T01:26:22;16.70;57.10
31113;DHT22;17763;48.730;9.136;2023-06-14T01:28:49;16.70;59.00
31113;DHT22;17763;48.730;9.136;2023-06-14T01:31:20;16.70;61.50
31113;DHT22;17763;48.730;9.136;2023-06-14T01:33:51;16.60;62.00
31113;DHT22;17763;48.730;9.136;2023-06-14T01:36:19;16.60;61.50
31113;DHT22;17763;48.730;9.136;2023-06-14T01:38:46;16.60;61.30
31113;DHT22;17763;48.730;9.136;2023-06-14T01:41:14;16.50;61.00
31113;DHT22;17763;48.730;9.136;2023-06-14T01:43:41;16.50;60.50
31113;DHT22;17763;48.730;9.136;2023-06-14T01:46:11;16.40;58.30
31113;DHT22;17763;48.730;9.136;2023-06-14T01:48:37;16.40;57.10
31113;DHT22;17763;48.730;9.136;2023-06-14T01:51:05;16.30;56.40
31113;DHT22;17763;48.730;9.136;2023-06-14T01:53:31;16.30;56.60
31113;DHT22;17763;48.730;9.136;2023-06-14T01:55:57;16.30;57.50
31113;DHT22;17763;48.730;9.136;2023-06-14T01:58:23;16.20;56.90
31113;DHT22;17763;48.730;9.136;2023-06-14T02:00:49;16.30;56.60
31113;DHT22;17763;48.730;9.136;2023-06-14T02:03:16;16.20;56.70
31113;DHT22;17763;48.730;9.136;2023-06-14T02:05:44;16.20;56.90
31113;DHT22;17763;48.730;9.136;2023-06-14T02:08:10;16.10;57.10
31113;DHT22;17763;48.730;9.136;2023-06-14T02:10:36;16.10;57.30
31113;DHT22;17763;48.730;9.136;2023-06-14T02:13:04;16.10;56.40
31113;DHT22;17763;48.730;9.136;2023-06-14T02:15:30;16.10;56.10
31113;DHT22;17763;48.730;9.136;2023-06-14T02:18:00;16.00;56.30
31113;DHT22;17763;48.730;9.136;2023-06-14T02:20:25;16.00;56.40
31113;DHT22;17763;48.730;9.136;2023-06-14T02:22:51;15.90;56.70
31113;DHT22;17763;48.730;9.136;2023-06-14T02:25:21;15.90;56.90
31113;DHT22;17763;48.730;9.136;2023-06-14T02:27:47;15.90;56.60
31113;DHT22;17763;48.730;9.136;2023-06-14T02:30:13;15.90;56.40
31113;DHT22;17763;48.730;9.136;2023-06-14T02:32:39;15.90;56.40
31113;DHT22;17763;48.730;9.136;2023-06-14T02:35:06;15.90;56.50
31113;DHT22;17763;48.730;9.136;2023-06-14T02:37:32;15.80;56.70
31113;DHT22;17763;48.730;9.136;2023-06-14T02:40:01;15.80;56.80
31113;DHT22;17763;48.730;9.136;2023-06-14T02:42:27;15.80;57.10
31113;DHT22;17763;48.730;9.136;2023-06-14T02:44:55;15.70;57.20
31113;DHT22;17763;48.730;9.136;2023-06-14T02:47:21;15.70;57.00
31113;DHT22;17763;48.730;9.136;2023-06-14T02:49:47;15.70;56.90
31113;DHT22;17763;48.730;9.136;2023-06-14T02:52:13;15.60;57.10
31113;DHT22;17763;48.730;9.136;2023-06-14T02:54:43;15.60;57.30
31113;DHT22;17763;48.730;9.136;2023-06-14T02:57:12;15.50;57.40
31113;DHT22;17763;48.730;9.136;2023-06-14T02:59:38;15.50;57.50
31113;DHT22;17763;48.730;9.136;2023-06-14T03:02:04;15.40;57.60
31113;DHT22;17763;48.730;9.136;2023-06-14T03:04:33;15.40;57.80
31113;DHT22;17763;48.730;9.136;2023-06-14T03:07:06;15.40;58.00
31113;DHT22;17763;48.730;9.136;2023-06-14T03:09:37;15.40;57.90
31113;DHT22;17763;48.730;9.136;2023-06-14T03:12:04;15.40;57.90
31113;DHT22;17763;48.730;9.136;2023-06-14T03:14:32;15.30;58.30
31113;DHT22;17763;48.730;9.136;2023-06-14T03:16:57;15.30;58.20
31113;DHT22;17763;48.730;9.136;2023-06-14T03:19:26;15.30;57.70
31113;DHT22;17763;48.730;9.136;2023-06-14T03:21:52;15.30;57.80
31113;DHT22;17763;48.730;9.136;2023-06-14T03:24:19;15.40;58.00
31113;DHT22;17763;48.730;9.136;2023-06-14T03:26:45;15.30;57.90
31113;DHT22;17763;48.730;9.136;2023-06-14T03:29:11;15.30;57.50
31113;DHT22;17763;48.730;9.136;2023-06-14T03:31:58;15.30;57.40
31113;DHT22;17763;48.730;9.136;2023-06-14T03:34:31;15.30;57.60
31113;DHT22;17763;48.730;9.136;2023-06-14T03:36:57;15.30;57.60
31113;DHT22;17763;48.730;9.136;2023-06-14T03:39:23;15.20;57.40
31113;DHT22;17763;48.730;9.136;2023-06-14T03:41:49;15.20;57.50
31113;DHT22;17763;48.730;9.136;2023-06-14T03:44:16;15.20;57.60
31113;DHT22;17763;48.730;9.136;2023-06-14T03:46:43;15.10;57.70
31113;DHT22;17763;48.730;9.136;2023-06-14T03:49:09;15.10;57.80
31113;DHT22;17763;48.730;9.136;2023-06-14T03:51:36;15.10;57.90
31113;DHT22;17763;48.730;9.136;2023-06-14T03:54:02;15.10;58.00
31113;DHT22;17763;48.730;9.136;2023-06-14T03:56:30;15.10;58.20
31113;DHT22;17763;48.730;9.136;2023-06-14T03:58:56;15.20;58.50
31113;DHT22;17763;48.730;9.136;2023-06-14T04:01:21;15.50;58.30
31113;DHT22;17763;48.730;9.136;2023-06-14T04:03:57;15.90;57.90
31113;DHT22;17763;48.730;9.136;2023-06-14T04:06:23;16.10;57.50
31113;DHT22;17763;48.730;9.136;2023-06-14T04:08:52;16.00;57.40
31113;DHT22;17763;48.730;9.136;2023-06-14T04:11:18;16.00;58.30
31113;DHT22;17763;48.730;9.136;2023-06-14T04:13:45;16.00;57.90
31113;DHT22;17763;48.730;9.136;2023-06-14T04:16:10;16.00;58.20
31113;DHT22;17763;48.730;9.136;2023-06-14T04:18:38;16.00;58.10
31113;DHT22;17763;48.730;9.136;2023-06-14T04:21:04;16.30;57.60
31113;DHT22;17763;48.730;9.136;2023-06-14T04:23:33;16.50;58.00
31113;DHT22;17763;48.730;9.136;2023-06-14T04:25:59;16.70;57.20
31113;DHT22;17763;48.730;9.136;2023-06-14T04:28:28;16.60;57.10
31113;DHT22;17763;48.730;9.136;2023-06-14T04:30:57;16.50;57.40
31113;DHT22;17763;48.730;9.136;2023-06-14T04:33:26;16.30;57.80
31113;DHT22;17763;48.730;9.136;2023-06-14T04:35:52;16.30;58.60
31113;DHT22;17763;48.730;9.136;2023-06-14T04:38:21;16.10;59.40
31113;DHT22;17763;48.730;9.136;2023-06-14T04:40:53;16.00;60.20
31113;DHT22;17763;48.730;9.136;2023-06-14T04:43:21;16.00;60.90
31113;DHT22;17763;48.730;9.136;2023-06-14T04:45:53;16.00;60.80
31113;DHT22;17763;48.730;9.136;2023-06-14T04:48:22;15.90;60.80
31113;DHT22;17763;48.730;9.136;2023-06-14T04:50:48;16.00;61.10
31113;DHT22;17763;48.730;9.136;2023-06-14T04:53:18;16.10;61.30
31113;DHT22;17763;48.730;9.136;2023-06-14T04:55:48;16.20;61.50
31113;DHT22;17763;48.730;9.136;2023-06-14T04:58:16;16.30;60.60
31113;DHT22;17763;48.730;9.136;2023-06-14T05:00:42;16.40;59.90
31113;DHT22;17763;48.730;9.136;2023-06-14T05:03:10;16.40;60.20
31113;DHT22;17763;48.730;9.136;2023-06-14T05:05:39;16.50;60.60
31113;DHT22;17763;48.730;9.136;2023-06-14T05:08:05;16.60;60.70
31113;DHT22;17763;48.730;9.136;2023-06-14T05:10:31;16.70;60.30
31113;DHT22;17763;48.730;9.136;2023-06-14T05:12:56;16.80;60.30
31113;DHT22;17763;48.730;9.136;2023-06-14T05:15:22;16.90;60.50
31113;DHT22;17763;48.730;9.136;2023-06-14T05:17:50;17.00;59.20
31113;DHT22;17763;48.730;9.136;2023-06-14T05:20:21;17.10;59.40
31113;DHT22;17763;48.730;9.136;2023-06-14T05:22:48;17.40;58.40
31113;DHT22;17763;48.730;9.136;2023-06-14T05:25:17;17.50;57.90
31113;DHT22;17763;48.730;9.136;2023-06-14T05:27:43;17.70;57.50
31113;DHT22;17763;48.730;9.136;2023-06-14T05:30:09;17.80;57.40
31113;DHT22;17763;48.730;9.136;2023-06-14T05:32:37;17.90;57.70
31113;DHT22;17763;48.730;9.136;2023-06-14T05:35:03;17.90;57.90
31113;DHT22;17763;48.730;9.136;2023-06-14T05:37:29;18.00;57.60
31113;DHT22;17763;48.730;9.136;2023-06-14T05:39:56;18.00;57.80
31113;DHT22;17763;48.730;9.136;2023-06-14T05:42:24;17.90;58.10
31113;DHT22;17763;48.730;9.136;2023-06-14T05:44:52;17.90;58.00
31113;DHT22;17763;48.730;9.136;2023-06-14T05:47:18;17.90;57.70
31113;DHT22;17763;48.730;9.136;2023-06-14T05:49:45;17.90;57.90
31113;DHT22;17763;48.730;9.136;2023-06-14T05:52:14;18.00;58.10
31113;DHT22;17763;48.730;9.136;2023-06-14T05:54:39;18.10;57.80
31113;DHT22;17763;48.730;9.136;2023-06-14T05:57:07;18.30;57.40
31113;DHT22;17763;48.730;9.136;2023-06-14T05:59:35;18.40;57.00
31113;DHT22;17763;48.730;9.136;2023-06-14T06:02:00;18.60;56.90
31113;DHT22;17763;48.730;9.136;2023-06-14T06:04:26;18.70;56.20
31113;DHT22;17763;48.730;9.136;2023-06-14T06:06:52;18.90;56.00
31113;DHT22;17763;48.730;9.136;2023-06-14T06:09:20;19.00;56.20
31113;DHT22;17763;48.730;9.136;2023-06-14T06:11:48;19.10;56.20
31113;DHT22;17763;48.730;9.136;2023-06-14T06:14:16;19.10;55.40
31113;DHT22;17763;48.730;9.136;2023-06-14T06:16:44;19.20;55.50
31113;DHT22;17763;48.730;9.136;2023-06-14T06:19:12;19.30;56.10
31113;DHT22;17763;48.730;9.136;2023-06-14T06:21:38;19.50;55.80
31113;DHT22;17763;48.730;9.136;2023-06-14T06:24:05;19.60;55.00
31113;DHT22;17763;48.730;9.136;2023-06-14T06:26:31;19.70;55.00
31113;DHT22;17763;48.730;9.136;2023-06-14T06:28:58;19.90;55.20
31113;DHT22;17763;48.730;9.136;2023-06-14T06:31:26;19.90;54.50
31113;DHT22;17763;48.730;9.136;2023-06-14T06:33:56;19.90;55.70
31113;DHT22;17763;48.730;9.136;2023-06-14T06:36:21;20.00;53.70
31113;DHT22;17763;48.730;9.136;2023-06-14T06:38:47;20.00;53.50
31113;DHT22;17763;48.730;9.136;2023-06-14T06:41:13;20.10;53.30
31113;DHT22;17763;48.730;9.136;2023-06-14T06:43:41;20.30;53.30
31113;DHT22;17763;48.730;9.136;2023-06-14T06:46:07;20.40;52.20
31113;DHT22;17763;48.730;9.136;2023-06-14T06:48:33;20.50;52.50
31113;DHT22;17763;48.730;9.136;2023-06-14T06:50:58;20.70;51.70
31113;DHT22;17763;48.730;9.136;2023-06-14T06:53:26;20.70;51.60
31113;DHT22;17763;48.730;9.136;2023-06-14T06:55:52;20.70;51.40
31113;DHT22;17763;48.730;9.136;2023-06-14T06:58:17;20.70;50.80
31113;DHT22;17763;48.730;9.136;2023-06-14T07:00:43;20.70;50.90
31113;DHT22;17763;48.730;9.136;2023-06-14T07:03:08;20.80;50.50
31113;DHT22;17763;48.730;9.136;2023-06-14T07:05:39;20.80;49.90
31113;DHT22;17763;48.730;9.136;2023-06-14T07:08:05;20.90;50.00
31113;DHT22;17763;48.730;9.136;2023-06-14T07:10:33;21.10;50.40
31113;DHT22;17763;48.730;9.136;2023-06-14T07:12:58;21.20;50.20
31113;DHT22;17763;48.730;9.136;2023-06-14T07:15:24;21.30;50.10
31113;DHT22;17763;48.730;9.136;2023-06-14T07:17:50;21.40;50.60
31113;DHT22;17763;48.730;9.136;2023-06-14T07:20:19;21.50;50.10
31113;DHT22;17763;48.730;9.136;2023-06-14T07:22:48;21.60;49.90
31113;DHT22;17763;48.730;9.136;2023-06-14T07:25:14;21.50;50.00
31113;DHT22;17763;48.730;9.136;2023-06-14T07:27:41;21.50;49.80
31113;DHT22;17763;48.730;9.136;2023-06-14T07:30:07;21.50;49.80
31113;DHT22;17763;48.730;9.136;2023-06-14T07:32:33;21.50;50.10
31113;DHT22;17763;48.730;9.136;2023-06-14T07:34:59;21.60;50.30
31113;DHT22;17763;48.730;9.136;2023-06-14T07:37:24;21.70;50.40
31113;DHT22;17763;48.730;9.136;2023-06-14T07:39:50;21.90;49.60
31113;DHT22;17763;48.730;9.136;2023-06-14T07:42:16;22.10;49.30
31113;DHT22;17763;48.730;9.136;2023-06-14T07:44:42;22.20;49.60
31113;DHT22;17763;48.730;9.136;2023-06-14T07:47:07;22.30;49.60
31113;DHT22;17763;48.730;9.136;2023-06-14T07:49:33;22.40;49.60
31113;DHT22;17763;48.730;9.136;2023-06-14T07:51:59;22.30;49.20
31113;DHT22;17763;48.730;9.136;2023-06-14T07:54:24;22.20;50.20
31113;DHT22;17763;48.730;9.136;2023-06-14T07:56:54;22.20;50.80
31113;DHT22;17763;48.730;9.136;2023-06-14T07:59:21;22.30;50.70
31113;DHT22;17763;48.730;9.136;2023-06-14T08:01:49;22.30;50.00
31113;DHT22;17763;48.730;9.136;2023-06-14T08:04:14;22.40;49.30
31113;DHT22;17763;48.730;9.136;2023-06-14T08:06:40;22.40;48.90
31113;DHT22;17763;48.730;9.136;2023-06-14T08:09:12;22.50;49.00
31113;DHT22;17763;48.730;9.136;2023-06-14T08:11:38;22.40;48.40
31113;DHT22;17763;48.730;9.136;2023-06-14T08:14:04;22.50;48.60
31113;DHT22;17763;48.730;9.136;2023-06-14T08:16:30;22.60;49.30
31113;DHT22;17763;48.730;9.136;2023-06-14T08:18:56;22.70;48.90
31113;DHT22;17763;48.730;9.136;2023-06-14T08:21:21;22.60;48.30
31113;DHT22;17763;48.730;9.136;2023-06-14T08:23:47;22.50;48.00
31113;DHT22;17763;48.730;9.136;2023-06-14T08:26:13;22.30;49.00
31113;DHT22;17763;48.730;9.136;2023-06-14T08:28:38;22.20;49.10
31113;DHT22;17763;48.730;9.136;2023-06-14T08:31:06;22.10;49.30
31113;DHT22;17763;48.730;9.136;2023-06-14T08:33:34;22.20;49.00
31113;DHT22;17763;48.730;9.136;2023-06-14T08:36:00;22.20;49.10
31113;DHT22;17763;48.730;9.136;2023-06-14T08:38:25;22.20;49.30
31113;DHT22;17763;48.730;9.136;2023-06-14T08:40:56;22.30;49.80
31113;DHT22;17763;48.730;9.136;2023-06-14T08:43:22;22.30;49.20
31113;DHT22;17763;48.730;9.136;2023-06-14T08:45:48;22.40;49.40
31113;DHT22;17763;48.730;9.136;2023-06-14T08:48:24;22.30;49.40
31113;DHT22;17763;48.730;9.136;2023-06-14T08:50:53;22.20;50.10
31113;DHT22;17763;48.730;9.136;2023-06-14T08:53:20;22.10;50.10
31113;DHT22;17763;48.730;9.136;2023-06-14T08:55:46;22.00;50.40
31113;DHT22;17763;48.730;9.136;2023-06-14T08:58:13;21.90;51.30
31113;DHT22;17763;48.730;9.136;2023-06-14T09:00:41;22.00;51.70
31113;DHT22;17763;48.730;9.136;2023-06-14T09:03:08;22.20;51.70
31113;DHT22;17763;48.730;9.136;2023-06-14T09:05:38;22.20;51.30
31113;DHT22;17763;48.730;9.136;2023-06-14T09:08:04;22.20;50.70
31113;DHT22;17763;48.730;9.136;2023-06-14T09:10:31;22.20;50.80
31113;DHT22;17763;48.730;9.136;2023-06-14T09:13:02;22.20;50.90
31113;DHT22;17763;48.730;9.136;2023-06-14T09:15:29;22.30;51.00
31113;DHT22;17763;48.730;9.136;2023-06-14T09:17:57;22.30;51.10
31113;DHT22;17763;48.730;9.136;2023-06-14T09:20:24;22.30;50.90
31113;DHT22;17763;48.730;9.136;2023-06-14T09:22:50;22.30;50.30
31113;DHT22;17763;48.730;9.136;2023-06-14T09:25:18;22.30;51.00
31113;DHT22;17763;48.730;9.136;2023-06-14T09:27:47;22.30;50.90
31113;DHT22;17763;48.730;9.136;2023-06-14T09:30:15;22.30;51.10
31113;DHT22;17763;48.730;9.136;2023-06-14T09:32:43;22.30;51.50
31113;DHT22;17763;48.730;9.136;2023-06-14T09:35:09;22.40;50.60
31113;DHT22;17763;48.730;9.136;2023-06-14T09:37:35;22.50;49.70
31113;DHT22;17763;48.730;9.136;2023-06-14T09:40:05;22.50;49.70
31113;DHT22;17763;48.730;9.136;2023-06-14T09:42:32;22.60;49.60
31113;DHT22;17763;48.730;9.136;2023-06-14T09:45:02;22.70;50.00
31113;DHT22;17763;48.730;9.136;2023-06-14T09:47:29;22.70;50.50
31113;DHT22;17763;48.730;9.136;2023-06-14T09:49:55;22.80;49.70
31113;DHT22;17763;48.730;9.136;2023-06-14T09:52:22;23.00;49.70
31113;DHT22;17763;48.730;9.136;2023-06-14T09:54:48;23.20;48.90
31113;DHT22;17763;48.730;9.136;2023-06-14T09:57:22;23.20;49.30
31113;DHT22;17763;48.730;9.136;2023-06-14T09:59:49;23.40;48.60
31113;DHT22;17763;48.730;9.136;2023-06-14T10:02:28;23.60;48.90
31113;DHT22;17763;48.730;9.136;2023-06-14T10:05:07;23.80;49.00
31113;DHT22;17763;48.730;9.136;2023-06-14T10:07:44;23.90;46.80
31113;DHT22;17763;48.730;9.136;2023-06-14T10:10:10;23.80;46.40
31113;DHT22;17763;48.730;9.136;2023-06-14T10:12:42;23.60;46.70
31113;DHT22;17763;48.730;9.136;2023-06-14T10:15:18;23.40;46.60
31113;DHT22;17763;48.730;9.136;2023-06-14T10:18:01;23.10;47.20
31113;DHT22;17763;48.730;9.136;2023-06-14T10:23:32;23.00;48.20
31113;DHT22;17763;48.730;9.136;2023-06-14T10:26:00;23.00;44.80
31113;DHT22;17763;48.730;9.136;2023-06-14T10:28:26;23.10;46.50
31113;DHT22;17763;48.730;9.136;2023-06-14T10:33:31;23.20;46.80
31113;DHT22;17763;48.730;9.136;2023-06-14T10:41:40;23.10;47.20
31113;DHT22;17763;48.730;9.136;2023-06-14T10:46:49;23.20;48.90
31113;DHT22;17763;48.730;9.136;2023-06-14T10:49:18;23.30;48.20
31113;DHT22;17763;48.730;9.136;2023-06-14T10:51:50;23.20;49.50
31113;DHT22;17763;48.730;9.136;2023-06-14T10:54:16;23.30;48.10
31113;DHT22;17763;48.730;9.136;2023-06-14T10:56:49;23.20;48.80
31113;DHT22;17763;48.730;9.136;2023-06-14T10:59:16;23.50;49.70
31113;DHT22;17763;48.730;9.136;2023-06-14T11:02:13;23.60;46.70
31113;DHT22;17763;48.730;9.136;2023-06-14T11:04:49;23.70;47.40
31113;DHT22;17763;48.730;9.136;2023-06-14T11:12:54;23.90;47.80
31113;DHT22;17763;48.730;9.136;2023-06-14T11:15:20;23.90;46.30
31113;DHT22;17763;48.730;9.136;2023-06-14T11:17:52;24.00;48.50
31113;DHT22;17763;48.730;9.136;2023-06-14T11:20:25;24.10;45.20
31113;DHT22;17763;48.730;9.136;2023-06-14T11:22:54;24.00;46.50
31113;DHT22;17763;48.730;9.136;2023-06-14T11:25:20;24.20;46.40
31113;DHT22;17763;48.730;9.136;2023-06-14T11:27:46;24.20;47.80
31113;DHT22;17763;48.730;9.136;2023-06-14T11:30:14;24.30;46.30
31113;DHT22;17763;48.730;9.136;2023-06-14T11:32:40;24.20;45.90
31113;DHT22;17763;48.730;9.136;2023-06-14T11:35:06;24.00;45.00
31113;DHT22;17763;48.730;9.136;2023-06-14T11:37:36;23.80;45.00
31113;DHT22;17763;48.730;9.136;2023-06-14T11:40:06;23.50;46.70
31113;DHT22;17763;48.730;9.136;2023-06-14T11:42:35;23.40;46.80
31113;DHT22;17763;48.730;9.136;2023-06-14T11:45:01;23.30;45.90
31113;DHT22;17763;48.730;9.136;2023-06-14T11:47:38;23.10;45.50
31113;DHT22;17763;48.730;9.136;2023-06-14T11:50:06;23.10;46.90
31113;DHT22;17763;48.730;9.136;2023-06-14T11:52:34;23.20;45.50
31113;DHT22;17763;48.730;9.136;2023-06-14T11:55:01;23.30;46.70
31113;DHT22;17763;48.730;9.136;2023-06-14T11:57:29;23.30;45.10
31113;DHT22;17763;48.730;9.136;2023-06-14T11:59:55;23.30;45.60
31113;DHT22;17763;48.730;9.136;2023-06-14T12:02:21;23.40;45.90
31113;DHT22;17763;48.730;9.136;2023-06-14T12:04:52;23.50;47.20
31113;DHT22;17763;48.730;9.136;2023-06-14T12:07:18;23.60;45.80
31113;DHT22;17763;48.730;9.136;2023-06-14T12:12:26;23.70;45.40
31113;DHT22;17763;48.730;9.136;2023-06-14T12:14:53;23.80;46.30
31113;DHT22;17763;48.730;9.136;2023-06-14T12:17:21;24.00;46.60
31113;DHT22;17763;48.730;9.136;2023-06-14T12:19:49;24.10;45.40
31113;DHT22;17763;48.730;9.136;2023-06-14T12:22:16;24.10;45.20
31113;DHT22;17763;48.730;9.136;2023-06-14T12:24:45;24.20;46.40
31113;DHT22;17763;48.730;9.136;2023-06-14T12:27:11;24.00;45.00
31113;DHT22;17763;48.730;9.136;2023-06-14T12:29:41;24.10;44.50
31113;DHT22;17763;48.730;9.136;2023-06-14T12:32:09;24.10;44.50
31113;DHT22;17763;48.730;9.136;2023-06-14T12:34:37;24.10;44.00
31113;DHT22;17763;48.730;9.136;2023-06-14T12:37:03;24.00;43.60
31113;DHT22;17763;48.730;9.136;2023-06-14T12:39:32;24.00;44.30
31113;DHT22;17763;48.730;9.136;2023-06-14T12:41:58;24.10;44.50
31113;DHT22;17763;48.730;9.136;2023-06-14T12:44:24;24.20;44.30
31113;DHT22;17763;48.730;9.136;2023-06-14T12:46:52;24.30;44.70
31113;DHT22;17763;48.730;9.136;2023-06-14T12:49:19;24.30;44.30
31113;DHT22;17763;48.730;9.136;2023-06-14T12:51:48;24.30;45.00
31113;DHT22;17763;48.730;9.136;2023-06-14T12:54:14;24.30;45.10
31113;DHT22;17763;48.730;9.136;2023-06-14T12:56:40;24.40;45.00
31113;DHT22;17763;48.730;9.136;2023-06-14T12:59:10;24.30;43.90
31113;DHT22;17763;48.730;9.136;2023-06-14T13:01:38;24.30;45.20
31113;DHT22;17763;48.730;9.136;2023-06-14T13:04:04;24.30;45.00
31113;DHT22;17763;48.730;9.136;2023-06-14T13:06:30;24.30;45.30
31113;DHT22;17763;48.730;9.136;2023-06-14T13:08:56;24.20;44.00
31113;DHT22;17763;48.730;9.136;2023-06-14T13:11:24;24.10;45.00
31113;DHT22;17763;48.730;9.136;2023-06-14T13:13:49;24.20;45.30
31113;DHT22;17763;48.730;9.136;2023-06-14T13:16:15;24.30;45.50
31113;DHT22;17763;48.730;9.136;2023-06-14T13:18:41;24.30;44.40
31113;DHT22;17763;48.730;9.136;2023-06-14T13:21:06;24.30;45.00
31113;DHT22;17763;48.730;9.136;2023-06-14T13:23:32;24.50;44.80
31113;DHT22;17763;48.730;9.136;2023-06-14T13:25:58;24.60;44.00
31113;DHT22;17763;48.730;9.136;2023-06-14T13:28:24;24.80;44.20
31113;DHT22;17763;48.730;9.136;2023-06-14T13:30:49;24.80;42.40
31113;DHT22;17763;48.730;9.136;2023-06-14T13:33:15;24.90;42.70
31113;DHT22;17763;48.730;9.136;2023-06-14T13:35:41;24.90;42.60
31113;DHT22;17763;48.730;9.136;2023-06-14T13:38:06;24.90;43.30
31113;DHT22;17763;48.730;9.136;2023-06-14T13:40:35;25.10;44.10
31113;DHT22;17763;48.730;9.136;2023-06-14T13:43:05;25.20;43.20
31113;DHT22;17763;48.730;9.136;2023-06-14T13:45:33;25.00;43.00
31113;DHT22;17763;48.730;9.136;2023-06-14T13:47:59;24.90;43.30
31113;DHT22;17763;48.730;9.136;2023-06-14T13:50:24;24.70;45.20
31113;DHT22;17763;48.730;9.136;2023-06-14T13:52:50;24.60;43.20
31113;DHT22;17763;48.730;9.136;2023-06-14T13:55:17;24.70;43.50
31113;DHT22;17763;48.730;9.136;2023-06-14T13:57:42;24.80;43.70
31113;DHT22;17763;48.730;9.136;2023-06-14T14:00:09;24.80;44.60
31113;DHT22;17763;48.730;9.136;2023-06-14T14:02:37;24.80;43.30
31113;DHT22;17763;48.730;9.136;2023-06-14T14:05:05;24.80;43.60
31113;DHT22;17763;48.730;9.136;2023-06-14T14:07:32;25.00;43.40
31113;DHT22;17763;48.730;9.136;2023-06-14T14:09:57;25.20;42.80
31113;DHT22;17763;48.730;9.136;2023-06-14T14:12:23;25.30;43.60
31113;DHT22;17763;48.730;9.136;2023-06-14T14:14:51;25.50;43.80
31113;DHT22;17763;48.730;9.136;2023-06-14T14:17:17;25.70;44.00
31113;DHT22;17763;48.730;9.136;2023-06-14T14:19:43;26.00;43.90
31113;DHT22;17763;48.730;9.136;2023-06-14T14:22:11;25.90;43.00
31113;DHT22;17763;48.730;9.136;2023-06-14T14:24:36;26.10;43.40
31113;DHT22;17763;48.730;9.136;2023-06-14T14:27:02;26.30;42.50
31113;DHT22;17763;48.730;9.136;2023-06-14T14:29:28;26.50;42.10
31113;DHT22;17763;48.730;9.136;2023-06-14T14:31:59;26.80;42.50
31113;DHT22;17763;48.730;9.136;2023-06-14T14:34:25;26.70;41.50
31113;DHT22;17763;48.730;9.136;2023-06-14T14:36:51;26.90;44.10
31113;DHT22;17763;48.730;9.136;2023-06-14T14:39:16;27.00;43.30
31113;DHT22;17763;48.730;9.136;2023-06-14T14:41:42;27.20;44.60
31113;DHT22;17763;48.730;9.136;2023-06-14T14:44:07;27.30;45.40
31113;DHT22;17763;48.730;9.136;2023-06-14T14:46:35;27.30;45.40
31113;DHT22;17763;48.730;9.136;2023-06-14T14:49:01;27.30;43.20
31113;DHT22;17763;48.730;9.136;2023-06-14T14:51:29;27.30;44.00
31113;DHT22;17763;48.730;9.136;2023-06-14T14:53:54;27.00;44.10
31113;DHT22;17763;48.730;9.136;2023-06-14T14:56:20;26.90;45.60
31113;DHT22;17763;48.730;9.136;2023-06-14T14:58:48;26.60;45.00
31113;DHT22;17763;48.730;9.136;2023-06-14T15:01:15;26.50;46.10
31113;DHT22;17763;48.730;9.136;2023-06-14T15:03:40;26.40;43.30
31113;DHT22;17763;48.730;9.136;2023-06-14T15:06:06;26.20;44.50
31113;DHT22;17763;48.730;9.136;2023-06-14T15:08:31;26.20;46.30
31113;DHT22;17763;48.730;9.136;2023-06-14T15:10:57;26.00;45.00
31113;DHT22;17763;48.730;9.136;2023-06-14T15:13:23;26.00;46.10
31113;DHT22;17763;48.730;9.136;2023-06-14T15:15:48;25.90;44.50
31113;DHT22;17763;48.730;9.136;2023-06-14T15:18:14;25.70;45.20
31113;DHT22;17763;48.730;9.136;2023-06-14T15:20:40;25.40;45.00
31113;DHT22;17763;48.730;9.136;2023-06-14T15:23:07;25.20;45.00
31113;DHT22;17763;48.730;9.136;2023-06-14T15:25:32;25.00;46.10
31113;DHT22;17763;48.730;9.136;2023-06-14T15:27:58;25.00;44.60
31113;DHT22;17763;48.730;9.136;2023-06-14T15:30:24;25.20;44.70
31113;DHT22;17763;48.730;9.136;2023-06-14T15:32:50;25.30;45.10
31113;DHT22;17763;48.730;9.136;2023-06-14T15:35:16;25.50;45.70
31113;DHT22;17763;48.730;9.136;2023-06-14T15:37:43;25.50;44.40
31113;DHT22;17763;48.730;9.136;2023-06-14T15:40:09;25.40;43.70
31113;DHT22;17763;48.730;9.136;2023-06-14T15:42:34;25.40;43.90
31113;DHT22;17763;48.730;9.136;2023-06-14T15:45:00;25.60;45.70
31113;DHT22;17763;48.730;9.136;2023-06-14T15:47:26;25.70;44.10
31113;DHT22;17763;48.730;9.136;2023-06-14T15:49:51;25.80;44.70
31113;DHT22;17763;48.730;9.136;2023-06-14T15:52:19;25.80;44.20
31113;DHT22;17763;48.730;9.136;2023-06-14T15:54:45;25.90;43.90
31113;DHT22;17763;48.730;9.136;2023-06-14T15:57:11;25.70;44.70
31113;DHT22;17763;48.730;9.136;2023-06-14T15:59:37;25.40;43.20
31113;DHT22;17763;48.730;9.136;2023-06-14T16:02:02;25.10;44.50